createdAt,value
2023-07-01T00:01:26.351Z,5.00
2023-07-01T00:03:54.602Z,6.10
2023-07-01T00:06:22.966Z,4.40
2023-07-01T00:08:51.037Z,4.50
2023-07-01T00:11:19.226Z,4.50
2023-07-01T00:13:47.760Z,5.40
2023-07-01T00:16:15.968Z,4.10
2023-07-01T00:18:45.037Z,5.30
2023-07-01T00:21:13.401Z,4.30
2023-07-01T00:23:42.056Z,4.10
2023-07-01T00:26:10.368Z,4.30
2023-07-01T00:28:38.635Z,4.80
2023-07-01T00:31:06.921Z,5.80
2023-07-01T00:33:35.231Z,5.00
2023-07-01T00:36:03.517Z,4.30
2023-07-01T00:38:31.905Z,3.80
2023-07-01T00:41:00.290Z,4.30
2023-07-01T00:43:29.855Z,4.70
2023-07-01T00:45:58.285Z,5.20
2023-07-01T00:48:27.916Z,4.90
2023-07-01T00:50:56.611Z,4.50
2023-07-01T00:53:25.506Z,4.50
2023-07-01T00:55:53.961Z,4.30
2023-07-01T00:58:22.384Z,5.10
2023-07-01T01:00:50.812Z,5.10
2023-07-01T01:03:30.970Z,5.10
2023-07-01T01:06:08.367Z,5.40
2023-07-01T01:08:58.504Z,4.30
2023-07-01T01:11:30.397Z,3.90
2023-07-01T01:14:04.359Z,5.00
2023-07-01T01:16:34.879Z,4.10
2023-07-01T01:19:08.889Z,4.00
2023-07-01T01:21:38.266Z,4.90
2023-07-01T01:24:09.277Z,5.20
2023-07-01T01:26:44.213Z,3.80
2023-07-01T01:29:12.564Z,4.40
2023-07-01T01:31:40.900Z,3.90
2023-07-01T01:34:09.092Z,4.10
2023-07-01T01:36:54.427Z,5.40
2023-07-01T01:39:29.506Z,6.10
2023-07-01T01:42:11.015Z,4.50
2023-07-01T01:44:48.881Z,4.70
2023-07-01T01:47:20.984Z,4.20
2023-07-01T01:49:54.633Z,5.80
2023-07-01T01:52:24.197Z,3.90
2023-07-01T01:54:56.064Z,4.70
2023-07-01T01:57:26.042Z,4.30
2023-07-01T01:59:55.411Z,4.20
2023-07-01T02:02:24.133Z,4.60
2023-07-01T02:04:52.501Z,5.70
2023-07-01T02:07:21.082Z,3.80
2023-07-01T02:09:49.228Z,4.40
2023-07-01T02:12:17.477Z,5.80
2023-07-01T02:14:45.654Z,5.60
2023-07-01T02:17:14.014Z,5.90
2023-07-01T02:19:42.237Z,4.10
2023-07-01T02:22:10.574Z,5.10
2023-07-01T02:24:39.441Z,4.40
2023-07-01T02:27:09.642Z,6.70
2023-07-01T02:29:38.576Z,5.40
2023-07-01T02:32:07.766Z,6.20
2023-07-01T02:34:36.020Z,6.30
2023-07-01T02:37:04.811Z,6.00
2023-07-01T02:39:33.497Z,6.00
2023-07-01T02:42:01.734Z,4.80
2023-07-01T02:44:29.779Z,5.00
2023-07-01T02:46:58.173Z,4.30
2023-07-01T02:49:26.345Z,6.10
2023-07-01T02:51:54.584Z,4.50
2023-07-01T02:54:22.793Z,5.50
2023-07-01T02:56:50.827Z,6.00
2023-07-01T02:59:19.087Z,5.60
2023-07-01T03:01:48.533Z,4.60
2023-07-01T03:04:21.200Z,6.60
2023-07-01T03:06:49.894Z,5.10
2023-07-01T03:09:18.026Z,5.80
2023-07-01T03:11:46.502Z,4.10
2023-07-01T03:14:14.760Z,5.70
2023-07-01T03:16:43.338Z,4.50
2023-07-01T03:19:12.268Z,5.50
2023-07-01T03:21:42.009Z,4.40
2023-07-01T03:24:10.978Z,6.20
2023-07-01T03:26:39.168Z,5.20
2023-07-01T03:29:07.352Z,6.50
2023-07-01T03:31:35.592Z,4.90
2023-07-01T03:34:03.984Z,4.80
2023-07-01T03:36:32.292Z,4.80
2023-07-01T03:39:02.064Z,4.60
2023-07-01T03:41:30.221Z,4.90
2023-07-01T03:43:58.355Z,5.80
2023-07-01T03:46:26.774Z,5.30
2023-07-01T03:48:56.346Z,5.30
2023-07-01T03:51:25.060Z,4.20
2023-07-01T03:53:53.304Z,6.00
2023-07-01T03:56:21.469Z,4.90
2023-07-01T03:58:52.722Z,4.50
2023-07-01T04:01:24.081Z,5.10
2023-07-01T04:03:54.845Z,4.90
2023-07-01T04:06:23.231Z,5.20
2023-07-01T04:08:56.398Z,7.00
2023-07-01T04:11:25.538Z,6.70
2023-07-01T04:13:53.964Z,8.10
2023-07-01T04:16:22.549Z,5.50
2023-07-01T04:18:50.674Z,4.90
2023-07-01T04:21:18.996Z,4.90
2023-07-01T04:23:47.114Z,4.70
2023-07-01T04:26:15.658Z,5.10
2023-07-01T04:28:43.906Z,5.40
2023-07-01T04:31:12.029Z,5.20
2023-07-01T04:33:40.436Z,4.30
2023-07-01T04:36:08.701Z,5.00
2023-07-01T04:38:36.998Z,4.80
2023-07-01T04:41:06.788Z,4.20
2023-07-01T04:43:35.836Z,3.90
2023-07-01T04:46:05.066Z,4.70
2023-07-01T04:48:33.219Z,4.60
2023-07-01T04:51:01.438Z,5.30
2023-07-01T04:53:29.688Z,5.00
2023-07-01T04:55:57.878Z,5.40
2023-07-01T04:58:26.155Z,4.70
2023-07-01T05:00:54.355Z,3.70
2023-07-01T05:03:22.776Z,4.50
2023-07-01T05:05:51.270Z,4.20
2023-07-01T05:08:19.968Z,5.10
2023-07-01T05:10:51.432Z,3.70
2023-07-01T05:13:19.874Z,3.90
2023-07-01T05:15:48.024Z,3.50
2023-07-01T05:18:16.252Z,4.00
2023-07-01T05:20:45.716Z,4.30
2023-07-01T05:23:14.447Z,4.30
2023-07-01T05:25:42.657Z,3.90
2023-07-01T05:28:11.196Z,3.60
2023-07-01T05:30:39.438Z,4.40
2023-07-01T05:33:07.691Z,4.60
2023-07-01T05:35:36.152Z,5.60
2023-07-01T05:38:13.912Z,7.90
2023-07-01T05:40:42.505Z,5.80
2023-07-01T05:43:10.751Z,6.40
2023-07-01T05:45:38.851Z,9.60
2023-07-01T05:48:07.580Z,10.80
2023-07-01T05:50:35.764Z,7.40
2023-07-01T05:53:04.021Z,9.00
2023-07-01T05:55:32.290Z,7.90
2023-07-01T05:58:00.535Z,8.70
2023-07-01T06:00:29.987Z,9.80
2023-07-01T06:02:58.107Z,7.80
2023-07-01T06:05:26.311Z,8.20
2023-07-01T06:07:54.392Z,8.60
2023-07-01T06:10:22.792Z,6.10
2023-07-01T06:12:51.490Z,10.80
2023-07-01T06:15:19.608Z,8.90
2023-07-01T06:17:48.216Z,6.80
2023-07-01T06:20:16.456Z,11.00
2023-07-01T06:22:44.779Z,7.30
2023-07-01T06:25:15.025Z,10.70
2023-07-01T06:27:43.178Z,6.10
2023-07-01T06:30:11.697Z,6.00
2023-07-01T06:32:39.912Z,6.20
2023-07-01T06:35:08.732Z,6.10
2023-07-01T06:37:36.882Z,6.30
2023-07-01T06:40:05.952Z,5.10
2023-07-01T06:42:36.230Z,5.80
2023-07-01T06:45:04.819Z,5.40
2023-07-01T06:47:33.102Z,5.20
2023-07-01T06:50:01.307Z,4.90
2023-07-01T06:52:32.652Z,5.20
2023-07-01T06:55:01.225Z,5.60
2023-07-01T06:57:31.408Z,4.80
2023-07-01T06:59:59.963Z,4.90
2023-07-01T07:02:28.320Z,5.50
2023-07-01T07:04:56.688Z,4.30
2023-07-01T07:07:25.434Z,5.30
2023-07-01T07:09:54.718Z,4.80
2023-07-01T07:12:23.758Z,4.10
2023-07-01T07:14:53.876Z,4.60
2023-07-01T07:17:22.363Z,4.60
2023-07-01T07:19:50.696Z,4.50
2023-07-01T07:22:18.871Z,4.90
2023-07-01T07:24:46.901Z,3.90
2023-07-01T07:27:15.011Z,3.70
2023-07-01T07:29:43.051Z,4.20
2023-07-01T07:32:11.283Z,4.00
2023-07-01T07:34:40.054Z,4.20
2023-07-01T07:37:08.910Z,3.90
2023-07-01T07:39:37.548Z,4.20
2023-07-01T07:42:06.518Z,4.20
2023-07-01T07:44:34.811Z,3.60
2023-07-01T07:47:03.093Z,4.10
2023-07-01T07:49:31.394Z,3.50
2023-07-01T07:52:02.410Z,3.90
2023-07-01T07:54:30.857Z,3.40
2023-07-01T07:57:00.718Z,4.10
2023-07-01T07:59:30.760Z,3.60
2023-07-01T08:01:59.519Z,3.20
2023-07-01T08:04:28.107Z,3.50
2023-07-01T08:06:56.425Z,4.00
2023-07-01T08:09:24.567Z,4.00
2023-07-01T08:11:52.800Z,3.60
2023-07-01T08:14:21.404Z,3.60
2023-07-01T08:16:49.656Z,3.50
2023-07-01T08:19:17.945Z,4.10
2023-07-01T08:21:46.342Z,3.50
2023-07-01T08:24:15.623Z,3.00
2023-07-01T08:26:45.013Z,3.10
2023-07-01T08:29:13.309Z,2.90
2023-07-01T08:31:42.548Z,2.60
2023-07-01T08:34:10.974Z,2.50
2023-07-01T08:36:39.320Z,2.90
2023-07-01T08:39:09.183Z,3.60
2023-07-01T08:42:00.755Z,2.70
2023-07-01T08:44:29.009Z,3.20
2023-07-01T08:46:58.102Z,2.40
2023-07-01T08:49:27.034Z,2.30
2023-07-01T08:52:11.810Z,2.80
2023-07-01T08:54:40.935Z,1.80
2023-07-01T08:57:10.478Z,2.10
2023-07-01T08:59:39.563Z,2.30
2023-07-01T09:02:08.964Z,2.30
2023-07-01T09:04:40.476Z,2.20
2023-07-01T09:07:09.856Z,2.20
2023-07-01T09:09:41.201Z,2.10
2023-07-01T09:12:09.731Z,2.30
2023-07-01T09:14:57.494Z,2.20
2023-07-01T09:17:39.653Z,2.10
2023-07-01T09:20:12.727Z,2.20
2023-07-01T09:22:44.262Z,2.30
2023-07-01T09:25:28.884Z,2.30
2023-07-01T09:27:57.216Z,2.40
2023-07-01T09:30:27.794Z,2.20
2023-07-01T09:33:17.274Z,2.60
2023-07-01T09:35:47.077Z,2.30
2023-07-01T09:38:15.715Z,2.50
2023-07-01T09:40:43.857Z,2.20
2023-07-01T09:43:12.477Z,2.30
2023-07-01T09:46:07.524Z,2.10
2023-07-01T09:48:36.867Z,2.30
2023-07-01T09:51:07.276Z,2.30
2023-07-01T09:53:36.571Z,2.30
2023-07-01T09:56:05.767Z,2.30
2023-07-01T09:58:34.787Z,2.40
2023-07-01T10:01:03.083Z,2.20
2023-07-01T10:03:31.692Z,2.70
2023-07-01T10:05:59.820Z,2.10
2023-07-01T10:08:28.117Z,2.30
2023-07-01T10:11:05.693Z,2.60
2023-07-01T10:13:43.461Z,2.40
2023-07-01T10:16:11.978Z,2.40
2023-07-01T10:18:40.308Z,2.70
2023-07-01T10:21:23.956Z,2.40
2023-07-01T10:23:53.285Z,2.40
2023-07-01T10:26:48.412Z,2.40
2023-07-01T10:29:29.028Z,2.70
2023-07-01T10:32:15.012Z,2.60
2023-07-01T10:34:56.622Z,2.50
2023-07-01T10:37:26.917Z,3.20
2023-07-01T10:39:56.483Z,2.30
2023-07-01T10:42:36.242Z,2.50
2023-07-01T10:45:13.771Z,2.90
2023-07-01T10:47:46.123Z,2.80
2023-07-01T10:50:16.048Z,2.50
2023-07-01T10:52:56.657Z,2.60
2023-07-01T10:55:46.973Z,3.80
2023-07-01T10:58:16.521Z,3.80
2023-07-01T11:00:44.769Z,2.90
2023-07-01T11:03:38.007Z,2.50
2023-07-01T11:06:14.083Z,2.70
2023-07-01T11:08:54.435Z,2.50
2023-07-01T11:11:24.449Z,2.20
2023-07-01T11:14:00.103Z,2.30
2023-07-01T11:16:30.402Z,2.50
2023-07-01T11:19:02.015Z,3.60
2023-07-01T11:24:00.538Z,4.30
2023-07-01T11:26:33.908Z,4.70
2023-07-01T11:29:03.988Z,3.20
2023-07-01T11:31:37.904Z,2.80
2023-07-01T11:34:06.270Z,3.00
2023-07-01T11:36:37.295Z,2.80
2023-07-01T11:39:17.138Z,2.30
2023-07-01T11:41:52.362Z,2.60
2023-07-01T11:44:26.228Z,2.60
2023-07-01T11:46:55.606Z,2.80
2023-07-01T11:49:23.829Z,2.40
2023-07-01T11:52:01.373Z,4.50
2023-07-01T11:54:46.816Z,3.60
2023-07-01T11:57:16.011Z,2.40
2023-07-01T12:00:06.814Z,8.90
2023-07-01T12:02:35.394Z,2.80
2023-07-01T12:05:05.197Z,2.20
2023-07-01T12:07:33.768Z,2.90
2023-07-01T12:10:24.255Z,2.90
2023-07-01T12:12:52.534Z,2.40
2023-07-01T12:15:22.653Z,2.30
2023-07-01T12:17:52.517Z,2.30
2023-07-01T12:20:22.411Z,2.10
2023-07-01T12:22:51.555Z,2.40
2023-07-01T12:25:19.779Z,2.60
2023-07-01T12:27:48.144Z,2.40
2023-07-01T12:30:16.258Z,2.90
2023-07-01T12:32:47.865Z,4.80
2023-07-01T12:35:18.315Z,2.20
2023-07-01T12:37:47.805Z,2.20
2023-07-01T12:40:16.590Z,2.30
2023-07-01T12:42:47.080Z,2.40
2023-07-01T12:45:15.612Z,2.20
2023-07-01T12:47:45.039Z,2.20
2023-07-01T12:50:13.493Z,2.50
2023-07-01T12:52:42.010Z,2.20
2023-07-01T12:55:11.127Z,2.10
2023-07-01T12:57:39.980Z,2.40
2023-07-01T13:00:10.330Z,2.40
2023-07-01T13:02:38.573Z,2.50
2023-07-01T13:05:07.499Z,2.20
2023-07-01T13:07:36.005Z,2.80
2023-07-01T13:10:04.662Z,2.60
2023-07-01T13:12:32.931Z,2.50
2023-07-01T13:15:01.460Z,2.50
2023-07-01T13:17:38.968Z,2.40
2023-07-01T13:20:10.178Z,2.70
2023-07-01T13:22:38.943Z,2.70
2023-07-01T13:25:07.799Z,2.20
2023-07-01T13:27:35.953Z,2.50
2023-07-01T13:30:07.661Z,2.40
2023-07-01T13:32:36.414Z,2.60
2023-07-01T13:35:05.065Z,2.30
2023-07-01T13:37:33.703Z,2.60
2023-07-01T13:40:01.928Z,2.80
2023-07-01T13:42:30.104Z,2.90
2023-07-01T13:44:58.439Z,2.30
2023-07-01T13:47:47.450Z,2.80
2023-07-01T13:50:25.127Z,2.60
2023-07-01T13:52:59.622Z,2.50
2023-07-01T13:55:32.018Z,2.40
2023-07-01T13:58:00.267Z,2.20
2023-07-01T14:00:45.800Z,2.30
2023-07-01T14:03:24.589Z,2.60
2023-07-01T14:05:56.954Z,2.30
2023-07-01T14:08:26.882Z,2.70
2023-07-01T14:10:55.696Z,2.50
2023-07-01T14:13:29.785Z,2.40
2023-07-01T14:15:58.091Z,2.50
2023-07-01T14:18:28.964Z,2.60
2023-07-01T14:21:05.675Z,3.00
2023-07-01T14:23:39.699Z,2.70
2023-07-01T14:26:14.224Z,2.70
2023-07-01T14:28:42.985Z,2.30
2023-07-01T14:31:12.983Z,2.60
2023-07-01T14:33:52.157Z,2.60
2023-07-01T14:36:26.762Z,2.30
2023-07-01T14:38:55.890Z,2.40
2023-07-01T14:41:28.292Z,2.50
2023-07-01T14:43:57.701Z,2.30
2023-07-01T14:46:29.031Z,2.50
2023-07-01T14:48:57.699Z,2.30
2023-07-01T14:51:26.583Z,2.70
2023-07-01T14:53:56.533Z,2.80
2023-07-01T14:56:27.408Z,2.70
2023-07-01T14:58:56.731Z,2.60
2023-07-01T15:01:28.062Z,2.90
2023-07-01T15:03:56.826Z,2.80
2023-07-01T15:06:25.249Z,2.40
2023-07-01T15:08:53.597Z,2.50
2023-07-01T15:11:21.842Z,2.50
2023-07-01T15:13:50.143Z,2.30
2023-07-01T15:16:20.725Z,2.50
2023-07-01T15:18:49.225Z,2.40
2023-07-01T15:21:17.370Z,2.70
2023-07-01T15:23:45.735Z,2.60
2023-07-01T15:26:13.918Z,2.40
2023-07-01T15:28:42.354Z,2.30
2023-07-01T15:31:10.722Z,2.70
2023-07-01T15:33:39.013Z,2.70
2023-07-01T15:36:07.385Z,2.70
2023-07-01T15:38:35.558Z,2.50
2023-07-01T15:41:03.837Z,2.90
2023-07-01T15:43:32.896Z,2.50
2023-07-01T15:46:01.072Z,2.40
2023-07-01T15:48:30.127Z,2.70
2023-07-01T15:50:59.033Z,2.20
2023-07-01T15:53:27.266Z,2.50
2023-07-01T15:55:55.751Z,2.50
2023-07-01T15:58:26.318Z,2.40
2023-07-01T16:00:54.799Z,2.50
2023-07-01T16:03:23.804Z,2.60
2023-07-01T16:05:52.357Z,2.70
2023-07-01T16:08:21.108Z,2.60
2023-07-01T16:10:51.396Z,2.70
2023-07-01T16:13:36.282Z,2.60
2023-07-01T16:16:07.027Z,2.40
2023-07-01T16:18:48.840Z,2.60
2023-07-01T16:21:28.652Z,2.50
2023-07-01T16:26:43.184Z,2.80
2023-07-01T16:29:11.731Z,2.90
2023-07-01T16:31:40.323Z,2.80
2023-07-01T16:34:09.601Z,2.60
2023-07-01T16:36:38.302Z,2.90
2023-07-01T16:39:13.322Z,2.70
2023-07-01T16:41:42.030Z,2.30
2023-07-01T16:44:10.260Z,2.80
2023-07-01T16:46:40.281Z,2.70
2023-07-01T16:49:11.330Z,2.90
2023-07-01T16:51:42.534Z,2.50
2023-07-01T16:54:39.142Z,2.60
2023-07-01T16:57:12.761Z,2.40
2023-07-01T16:59:48.956Z,2.80
2023-07-01T17:02:32.835Z,8.80
2023-07-01T17:05:07.020Z,3.40
2023-07-01T17:07:36.999Z,2.70
2023-07-01T17:10:06.102Z,2.80
2023-07-01T17:12:34.607Z,2.90
2023-07-01T17:15:08.899Z,2.70
2023-07-01T17:17:42.024Z,2.90
2023-07-01T17:20:11.773Z,5.40
2023-07-01T17:22:41.680Z,13.70
2023-07-01T17:25:10.478Z,19.60
2023-07-01T17:27:38.728Z,15.90
2023-07-01T17:30:07.756Z,8.00
2023-07-01T17:32:37.722Z,4.70
2023-07-01T17:35:24.730Z,3.70
2023-07-01T17:37:54.422Z,3.20
2023-07-01T17:40:23.767Z,2.90
2023-07-01T17:42:53.116Z,3.30
2023-07-01T17:45:21.903Z,2.90
2023-07-01T17:47:51.343Z,4.40
2023-07-01T17:50:22.273Z,4.20
2023-07-01T17:52:51.584Z,3.60
2023-07-01T17:55:19.938Z,3.20
2023-07-01T18:00:19.632Z,3.40
2023-07-01T18:02:47.985Z,3.20
2023-07-01T18:05:16.433Z,2.80
2023-07-01T18:07:44.962Z,3.20
2023-07-01T18:10:13.122Z,3.30
2023-07-01T18:12:42.545Z,3.00
2023-07-01T18:15:15.649Z,3.60
2023-07-01T18:17:46.830Z,3.40
2023-07-01T18:20:15.891Z,3.10
2023-07-01T18:22:44.574Z,2.90
2023-07-01T18:25:14.319Z,3.50
2023-07-01T18:27:42.990Z,3.40
2023-07-01T18:30:14.225Z,3.30
2023-07-01T18:32:45.808Z,3.70
2023-07-01T18:35:16.057Z,3.40
2023-07-01T18:37:48.390Z,3.40
2023-07-01T18:40:17.094Z,3.30
2023-07-01T18:42:45.890Z,3.30
2023-07-01T18:45:14.216Z,3.20
2023-07-01T18:47:43.316Z,3.30
2023-07-01T18:50:12.343Z,3.20
2023-07-01T18:52:42.132Z,3.10
2023-07-01T18:55:10.543Z,3.90
2023-07-01T18:57:39.034Z,4.30
2023-07-01T19:00:08.738Z,3.60
2023-07-01T19:02:37.276Z,4.20
2023-07-01T19:05:06.159Z,4.50
2023-07-01T19:07:34.345Z,5.10
2023-07-01T19:10:05.679Z,5.70
2023-07-01T19:12:34.781Z,5.60
2023-07-01T19:15:03.176Z,6.20
2023-07-01T19:17:31.660Z,5.80
2023-07-01T19:19:59.762Z,7.90
2023-07-01T19:22:31.872Z,6.00
2023-07-01T19:27:29.894Z,6.60
2023-07-01T19:30:12.828Z,6.70
2023-07-01T19:32:43.026Z,7.10
2023-07-01T19:35:11.426Z,6.00
2023-07-01T19:37:39.944Z,6.90
2023-07-01T19:40:08.565Z,4.70
2023-07-01T19:42:38.316Z,5.50
2023-07-01T19:45:07.130Z,5.90
2023-07-01T19:47:39.448Z,5.90
2023-07-01T19:50:09.717Z,4.50
2023-07-01T19:52:42.726Z,5.40
2023-07-01T19:55:11.156Z,4.90
2023-07-01T19:57:40.100Z,4.70
2023-07-01T20:00:10.680Z,5.60
2023-07-01T20:02:40.064Z,5.40
2023-07-01T20:05:09.424Z,5.40
2023-07-01T20:07:37.891Z,6.60
2023-07-01T20:10:12.904Z,5.70
2023-07-01T20:12:44.854Z,5.80
2023-07-01T20:15:13.721Z,6.70
2023-07-01T20:17:41.898Z,6.20
2023-07-01T20:20:10.312Z,5.20
2023-07-01T20:22:38.477Z,6.30
2023-07-01T20:25:06.947Z,5.50
2023-07-01T20:27:35.391Z,5.50
2023-07-01T20:30:06.409Z,6.40
2023-07-01T20:32:35.075Z,6.20
2023-07-01T20:35:05.702Z,4.90
2023-07-01T20:37:34.424Z,5.10
2023-07-01T20:40:02.827Z,4.80
2023-07-01T20:42:32.401Z,5.50
2023-07-01T20:45:00.748Z,5.40
2023-07-01T20:47:28.995Z,4.70
2023-07-01T20:49:59.579Z,5.40
2023-07-01T20:52:27.892Z,5.60
2023-07-01T20:54:56.279Z,5.40
2023-07-01T20:57:25.743Z,4.30
2023-07-01T20:59:54.001Z,5.40
2023-07-01T21:02:22.389Z,4.90
2023-07-01T21:04:51.757Z,6.00
2023-07-01T21:07:19.963Z,5.10
2023-07-01T21:09:48.021Z,5.60
2023-07-01T21:12:16.288Z,7.00
2023-07-01T21:14:44.677Z,5.40
2023-07-01T21:17:17.778Z,5.30
2023-07-01T21:19:46.598Z,5.20
2023-07-01T21:22:14.866Z,5.60
2023-07-01T21:24:43.782Z,6.00
2023-07-01T21:27:42.003Z,4.90
2023-07-01T21:30:17.896Z,5.20
2023-07-01T21:32:46.131Z,6.80
2023-07-01T21:35:15.140Z,8.40
2023-07-01T21:37:44.710Z,10.10
2023-07-01T21:40:15.440Z,8.70
2023-07-01T21:42:43.425Z,7.60
2023-07-01T21:45:22.728Z,8.00
2023-07-01T21:47:51.194Z,7.60
2023-07-01T21:50:28.543Z,7.40
2023-07-01T21:52:57.473Z,7.10
2023-07-01T21:55:25.695Z,6.60
2023-07-01T21:57:55.854Z,6.10
2023-07-01T22:00:24.209Z,6.30
2023-07-01T22:02:56.419Z,6.40
2023-07-01T22:07:56.211Z,5.40
2023-07-01T22:10:24.529Z,5.80
2023-07-01T22:12:52.711Z,5.00
2023-07-01T22:15:20.918Z,5.30
2023-07-01T22:17:49.150Z,5.50
2023-07-01T22:20:17.405Z,5.20
2023-07-01T22:22:45.502Z,5.10
2023-07-01T22:25:13.695Z,4.90
2023-07-01T22:27:41.961Z,4.70
2023-07-01T22:30:10.422Z,4.70
2023-07-01T22:32:42.498Z,4.20
2023-07-01T22:35:10.818Z,5.80
2023-07-01T22:37:39.006Z,5.10
2023-07-01T22:40:08.337Z,5.20
2023-07-01T22:42:36.654Z,5.20
2023-07-01T22:45:05.469Z,4.90
2023-07-01T22:47:33.839Z,5.20
2023-07-01T22:50:11.442Z,4.60
2023-07-01T22:52:39.715Z,4.50
2023-07-01T22:55:08.807Z,4.40
2023-07-01T22:57:37.020Z,5.00
2023-07-01T23:00:06.970Z,4.90
2023-07-01T23:02:35.157Z,4.50
2023-07-01T23:05:04.101Z,4.50
2023-07-01T23:07:32.472Z,5.10
2023-07-01T23:10:01.250Z,4.00
2023-07-01T23:12:29.770Z,6.20
2023-07-01T23:14:58.059Z,4.60
2023-07-01T23:17:32.317Z,4.70
2023-07-01T23:20:05.528Z,4.80
2023-07-01T23:22:37.425Z,4.80
2023-07-01T23:25:07.042Z,5.00
2023-07-01T23:27:46.514Z,4.80
2023-07-01T23:30:17.565Z,5.00
2023-07-01T23:32:53.312Z,6.00
2023-07-01T23:35:24.531Z,5.20
2023-07-01T23:37:53.182Z,4.60
2023-07-01T23:40:21.645Z,5.20
2023-07-01T23:42:49.977Z,4.20
2023-07-01T23:45:19.777Z,5.60
2023-07-01T23:47:49.822Z,5.20
2023-07-01T23:50:18.820Z,4.70
2023-07-01T23:52:47.258Z,4.00
2023-07-01T23:55:15.942Z,4.70
2023-07-01T23:57:44.348Z,5.40
